createdAt,value
2019-03-30T00:01:43.347Z,16.80
2019-03-30T00:04:28.855Z,18.47
2019-03-30T00:07:22.562Z,19.00
2019-03-30T00:10:16.279Z,16.77
2019-03-30T00:13:01.501Z,15.93
2019-03-30T00:15:55.411Z,18.30
2019-03-30T00:18:41.504Z,18.00
2019-03-30T00:21:26.822Z,18.27
2019-03-30T00:24:20.910Z,16.37
2019-03-30T00:27:06.007Z,18.40
2019-03-30T00:29:59.803Z,15.27
2019-03-30T00:32:44.323Z,17.23
2019-03-30T00:35:29.028Z,16.43
2019-03-30T00:38:13.855Z,17.73
2019-03-30T00:40:58.511Z,15.97
2019-03-30T00:43:43.463Z,17.20
2019-03-30T00:46:28.055Z,16.13
2019-03-30T00:49:12.793Z,16.47
2019-03-30T00:51:57.687Z,20.37
2019-03-30T00:54:42.659Z,22.80
2019-03-30T00:57:36.963Z,18.83
2019-03-30T01:00:21.893Z,17.33
2019-03-30T01:03:06.232Z,16.73
2019-03-30T01:05:51.123Z,20.67
2019-03-30T01:08:35.634Z,18.27
2019-03-30T01:11:20.357Z,18.50
2019-03-30T01:14:15.358Z,16.50
2019-03-30T01:17:00.476Z,17.70
2019-03-30T01:20:02.688Z,17.73
2019-03-30T01:22:50.308Z,20.67
2019-03-30T01:25:44.395Z,17.93
2019-03-30T01:28:38.013Z,17.33
2019-03-30T01:31:23.079Z,16.37
2019-03-30T01:34:08.034Z,16.80
2019-03-30T01:36:53.459Z,17.17
2019-03-30T01:39:38.439Z,16.83
2019-03-30T01:42:23.159Z,18.30
2019-03-30T01:45:07.439Z,15.87
2019-03-30T01:48:00.756Z,18.50
2019-03-30T01:50:45.246Z,17.60
2019-03-30T01:53:30.068Z,18.70
2019-03-30T01:56:14.575Z,15.93
2019-03-30T01:59:08.052Z,19.37
2019-03-30T02:01:52.706Z,18.47
2019-03-30T02:04:37.510Z,19.07
2019-03-30T02:07:22.487Z,19.37
2019-03-30T02:10:07.291Z,15.83
2019-03-30T02:12:52.203Z,20.00
2019-03-30T02:15:36.528Z,20.43
2019-03-30T02:18:21.827Z,18.00
2019-03-30T02:21:06.410Z,17.30
2019-03-30T02:23:51.779Z,16.83
2019-03-30T02:26:45.321Z,16.90
2019-03-30T02:29:30.246Z,18.47
2019-03-30T02:32:14.890Z,17.90
2019-03-30T02:34:59.307Z,16.73
2019-03-30T02:37:44.540Z,16.30
2019-03-30T02:40:29.201Z,21.30
2019-03-30T02:43:14.383Z,19.03
2019-03-30T02:45:59.168Z,18.33
2019-03-30T02:48:43.904Z,17.80
2019-03-30T02:51:28.811Z,18.90
2019-03-30T02:54:13.455Z,17.40
2019-03-30T02:56:58.567Z,20.10
2019-03-30T02:59:52.132Z,18.53
2019-03-30T03:02:37.089Z,17.70
2019-03-30T03:05:21.364Z,17.77
2019-03-30T03:08:06.312Z,17.33
2019-03-30T03:10:51.408Z,16.30
2019-03-30T03:13:36.467Z,19.33
2019-03-30T03:16:21.307Z,16.87
2019-03-30T03:19:06.014Z,18.53
2019-03-30T03:21:50.863Z,18.83
2019-03-30T03:24:35.676Z,19.70
2019-03-30T03:27:20.432Z,15.87
2019-03-30T03:30:05.832Z,18.87
2019-03-30T03:32:59.396Z,19.60
2019-03-30T03:35:44.131Z,18.87
2019-03-30T03:38:28.967Z,17.23
2019-03-30T03:41:13.495Z,17.20
2019-03-30T03:43:58.191Z,20.47
2019-03-30T03:46:42.757Z,17.53
2019-03-30T03:49:27.711Z,18.43
2019-03-30T03:52:12.239Z,18.83
2019-03-30T03:54:57.591Z,20.23
2019-03-30T03:57:42.419Z,17.57
2019-03-30T04:00:27.227Z,21.17
2019-03-30T04:03:12.340Z,21.43
2019-03-30T04:05:57.436Z,18.33
2019-03-30T04:08:51.006Z,17.43
2019-03-30T04:11:35.634Z,19.33
2019-03-30T04:14:20.401Z,21.73
2019-03-30T04:17:05.539Z,18.60
2019-03-30T04:19:50.397Z,21.43
2019-03-30T04:22:35.471Z,18.17
2019-03-30T04:25:29.560Z,19.93
2019-03-30T04:28:23.737Z,17.73
2019-03-30T04:31:17.624Z,20.60
2019-03-30T04:34:02.382Z,22.30
2019-03-30T04:36:47.014Z,22.10
2019-03-30T04:39:32.326Z,24.13
2019-03-30T04:42:26.323Z,17.90
2019-03-30T04:45:11.168Z,20.23
2019-03-30T04:47:55.847Z,18.47
2019-03-30T04:50:40.473Z,19.27
2019-03-30T04:53:25.111Z,19.73
2019-03-30T04:56:09.386Z,18.37
2019-03-30T04:58:54.263Z,22.43
2019-03-30T05:01:38.511Z,19.67
2019-03-30T05:04:32.767Z,20.73
2019-03-30T05:07:26.983Z,18.40
2019-03-30T05:10:26.321Z,20.37
2019-03-30T05:13:11.555Z,20.13
2019-03-30T05:15:56.106Z,19.37
2019-03-30T05:18:40.438Z,21.00
2019-03-30T05:21:24.817Z,20.00
2019-03-30T05:24:18.743Z,18.00
2019-03-30T05:27:12.551Z,19.63
2019-03-30T05:29:57.991Z,19.27
2019-03-30T05:33:04.902Z,19.77
2019-03-30T05:35:47.158Z,24.83
2019-03-30T05:38:31.955Z,25.20
2019-03-30T05:41:16.774Z,21.77
2019-03-30T05:44:01.050Z,19.23
2019-03-30T05:46:46.258Z,23.30
2019-03-30T05:49:31.035Z,21.50
2019-03-30T05:52:26.407Z,21.17
2019-03-30T05:55:02.247Z,19.03
2019-03-30T05:57:47.447Z,21.63
2019-03-30T06:00:43.412Z,22.43
2019-03-30T06:03:27.915Z,23.03
2019-03-30T06:06:12.800Z,21.03
2019-03-30T06:08:57.458Z,22.20
2019-03-30T06:11:42.518Z,21.33
2019-03-30T06:14:27.447Z,28.33
2019-03-30T06:17:12.760Z,20.67
2019-03-30T06:20:06.292Z,19.50
2019-03-30T06:22:50.887Z,20.00
2019-03-30T06:25:35.735Z,20.60
2019-03-30T06:28:20.759Z,22.07
2019-03-30T06:31:05.887Z,23.20
2019-03-30T06:33:59.147Z,68.10
2019-03-30T06:36:43.803Z,107.50
2019-03-30T06:39:28.664Z,78.90
2019-03-30T06:42:13.502Z,189.50
2019-03-30T06:44:58.142Z,542.67
2019-03-30T06:47:43.257Z,510.13
2019-03-30T06:50:27.995Z,121.50
2019-03-30T06:53:12.483Z,27.13
2019-03-30T06:55:58.130Z,22.70
2019-03-30T06:58:42.947Z,20.57
2019-03-30T07:01:27.783Z,23.13
2019-03-30T07:04:13.169Z,52.00
2019-03-30T07:06:57.887Z,20.70
2019-03-30T07:09:51.556Z,23.30
2019-03-30T07:12:36.719Z,22.50
2019-03-30T07:15:31.739Z,20.60
2019-03-30T07:18:16.739Z,19.30
2019-03-30T07:21:01.710Z,24.10
2019-03-30T07:23:46.355Z,21.83
2019-03-30T07:26:31.511Z,62.27
2019-03-30T07:29:16.355Z,35.60
2019-03-30T07:32:01.798Z,31.77
2019-03-30T07:34:56.040Z,21.90
2019-03-30T07:37:49.435Z,20.63
2019-03-30T07:40:34.172Z,66.43
2019-03-30T07:43:17.573Z,59.13
2019-03-30T07:49:37.740Z,21.03
2019-03-30T07:52:22.296Z,23.07
2019-03-30T07:55:06.768Z,80.80
2019-03-30T07:58:00.057Z,105.70
2019-03-30T08:00:44.583Z,36.27
2019-03-30T08:03:29.715Z,24.93
2019-03-30T08:06:14.354Z,27.20
2019-03-30T08:08:59.603Z,324.03
2019-03-30T08:11:44.258Z,162.13
2019-03-30T08:14:28.831Z,63.30
2019-03-30T08:17:14.200Z,23.63
2019-03-30T08:19:59.358Z,20.30
2019-03-30T08:22:53.134Z,25.30
2019-03-30T08:25:37.558Z,26.67
2019-03-30T08:28:23.777Z,26.37
2019-03-30T08:31:08.971Z,23.33
2019-03-30T08:33:53.955Z,20.90
2019-03-30T08:36:38.819Z,25.20
2019-03-30T08:39:24.023Z,38.20
2019-03-30T08:42:17.567Z,89.67
2019-03-30T08:45:02.122Z,22.87
2019-03-30T08:47:47.079Z,21.43
2019-03-30T08:50:31.771Z,23.60
2019-03-30T08:53:16.510Z,22.33
2019-03-30T08:56:01.322Z,19.90
2019-03-30T08:58:46.211Z,22.03
2019-03-30T09:01:31.619Z,41.53
2019-03-30T09:04:25.141Z,21.70
2019-03-30T09:07:09.702Z,20.97
2019-03-30T09:09:54.419Z,22.30
2019-03-30T09:12:39.078Z,21.27
2019-03-30T09:15:34.111Z,21.97
2019-03-30T09:18:19.091Z,23.30
2019-03-30T09:21:12.891Z,19.67
2019-03-30T09:24:08.865Z,24.07
2019-03-30T09:26:45.925Z,21.20
2019-03-30T09:29:39.689Z,21.17
2019-03-30T09:32:24.418Z,23.13
2019-03-30T09:35:09.182Z,21.57
2019-03-30T09:37:53.931Z,21.00
2019-03-30T09:40:38.611Z,22.43
2019-03-30T09:43:22.579Z,24.90
2019-03-30T09:46:16.631Z,23.00
2019-03-30T09:49:10.492Z,20.07
2019-03-30T09:51:55.473Z,22.57
2019-03-30T09:54:40.211Z,22.87
2019-03-30T09:57:25.066Z,20.57
2019-03-30T10:00:09.629Z,19.63
2019-03-30T10:02:54.433Z,20.90
2019-03-30T10:05:38.999Z,22.97
2019-03-30T10:08:23.563Z,23.50
2019-03-30T10:11:07.878Z,19.20
2019-03-30T10:14:01.367Z,22.50
2019-03-30T10:16:48.640Z,24.27
2019-03-30T10:19:32.306Z,24.70
2019-03-30T10:22:16.763Z,22.10
2019-03-30T10:25:00.990Z,25.47
2019-03-30T10:27:46.775Z,21.93
2019-03-30T10:30:31.556Z,22.60
2019-03-30T10:33:16.684Z,22.47
2019-03-30T10:36:00.907Z,20.83
2019-03-30T10:38:46.196Z,22.73
2019-03-30T10:41:31.110Z,26.00
2019-03-30T10:44:15.686Z,20.83
2019-03-30T10:47:00.550Z,24.77
2019-03-30T10:49:45.537Z,23.57
2019-03-30T10:52:31.118Z,20.10
2019-03-30T10:55:16.102Z,18.90
2019-03-30T10:58:00.711Z,22.00
2019-03-30T11:00:46.063Z,22.60
2019-03-30T11:03:30.924Z,23.93
2019-03-30T11:06:15.900Z,20.70
2019-03-30T11:09:00.733Z,21.50
2019-03-30T11:11:47.028Z,19.07
2019-03-30T11:14:32.026Z,23.90
2019-03-30T11:17:19.397Z,18.60
2019-03-30T11:20:03.970Z,21.10
2019-03-30T11:22:48.512Z,19.37
2019-03-30T11:25:42.380Z,18.37
2019-03-30T11:28:36.242Z,16.50
2019-03-30T11:31:21.126Z,16.23
2019-03-30T11:34:05.708Z,17.97
2019-03-30T11:36:50.612Z,16.67
2019-03-30T11:39:35.322Z,20.07
2019-03-30T11:42:19.625Z,17.97
2019-03-30T11:45:04.463Z,18.53
2019-03-30T11:47:48.774Z,17.87
2019-03-30T11:50:47.279Z,20.13
2019-03-30T11:53:40.776Z,18.67
2019-03-30T11:56:24.322Z,16.63
2019-03-30T11:59:09.131Z,15.07
2019-03-30T12:01:53.880Z,18.30
2019-03-30T12:04:38.701Z,13.80
2019-03-30T12:07:23.719Z,13.73
2019-03-30T12:10:17.955Z,14.33
2019-03-30T12:13:11.582Z,14.73
2019-03-30T12:15:56.132Z,16.97
2019-03-30T12:18:41.162Z,16.13
2019-03-30T12:21:25.963Z,16.30
2019-03-30T12:24:10.676Z,18.80
2019-03-30T12:26:55.734Z,16.03
2019-03-30T12:29:44.404Z,19.00
2019-03-30T12:32:28.324Z,17.83
2019-03-30T12:35:12.851Z,16.40
2019-03-30T12:37:57.053Z,17.37
2019-03-30T12:40:51.335Z,17.00
2019-03-30T12:43:45.143Z,16.40
2019-03-30T12:46:39.364Z,16.03
2019-03-30T12:49:33.415Z,15.13
2019-03-30T12:52:27.305Z,19.07
2019-03-30T12:55:12.482Z,18.33
2019-03-30T12:58:12.053Z,16.60
2019-03-30T13:00:57.598Z,17.60
2019-03-30T13:03:51.137Z,17.57
2019-03-30T13:06:37.223Z,17.90
2019-03-30T13:09:22.071Z,18.73
2019-03-30T13:12:06.607Z,15.90
2019-03-30T13:14:51.548Z,18.00
2019-03-30T13:17:36.408Z,17.20
2019-03-30T13:20:21.223Z,16.97
2019-03-30T13:23:06.266Z,16.13
2019-03-30T13:26:02.887Z,17.23
2019-03-30T13:28:36.675Z,13.97
2019-03-30T13:31:30.392Z,15.90
2019-03-30T13:34:14.924Z,17.30
2019-03-30T13:36:59.748Z,13.90
2019-03-30T13:39:44.736Z,14.67
2019-03-30T13:42:29.719Z,16.87
2019-03-30T13:45:23.828Z,15.27
2019-03-30T13:48:17.403Z,18.30
2019-03-30T13:51:01.943Z,17.83
2019-03-30T13:53:46.931Z,15.47
2019-03-30T13:56:31.531Z,16.30
2019-03-30T13:59:15.919Z,17.00
2019-03-30T14:02:02.060Z,15.23
2019-03-30T14:04:56.420Z,13.57
2019-03-30T14:07:49.663Z,15.97
2019-03-30T14:10:34.335Z,16.50
2019-03-30T14:13:18.714Z,14.07
2019-03-30T14:16:12.587Z,16.20
2019-03-30T14:19:14.658Z,15.93
2019-03-30T14:22:08.807Z,15.30
2019-03-30T14:25:02.518Z,13.70
2019-03-30T14:27:47.367Z,14.20
2019-03-30T14:30:32.287Z,13.50
2019-03-30T14:33:17.228Z,14.53
2019-03-30T14:36:01.998Z,14.83
2019-03-30T14:38:46.598Z,11.80
2019-03-30T14:41:31.391Z,13.10
2019-03-30T14:44:16.359Z,14.07
2019-03-30T14:47:01.412Z,13.30
2019-03-30T14:49:53.969Z,11.77
2019-03-30T14:52:39.126Z,12.77
2019-03-30T14:55:32.427Z,13.97
2019-03-30T14:58:17.341Z,13.70
2019-03-30T15:01:03.339Z,12.13
2019-03-30T15:03:48.395Z,14.67
2019-03-30T15:06:33.595Z,16.10
2019-03-30T15:09:18.486Z,14.87
2019-03-30T15:12:12.823Z,15.57
2019-03-30T15:15:06.415Z,15.87
2019-03-30T15:17:51.388Z,13.87
2019-03-30T15:20:36.407Z,15.17
2019-03-30T15:23:33.182Z,18.80
2019-03-30T15:26:17.918Z,12.53
2019-03-30T15:29:02.471Z,13.43
2019-03-30T15:31:57.107Z,15.17
2019-03-30T15:34:41.771Z,15.63
2019-03-30T15:37:26.751Z,13.00
2019-03-30T15:40:11.238Z,16.83
2019-03-30T15:42:55.728Z,14.87
2019-03-30T15:45:49.163Z,12.30
2019-03-30T15:48:35.566Z,14.40
2019-03-30T15:51:20.690Z,15.87
2019-03-30T15:54:14.884Z,14.80
2019-03-30T15:57:25.350Z,14.07
2019-03-30T16:00:21.080Z,14.57
2019-03-30T16:03:06.314Z,17.63
2019-03-30T16:05:59.899Z,14.20
2019-03-30T16:08:44.419Z,13.37
2019-03-30T16:11:39.120Z,15.13
2019-03-30T16:14:23.671Z,13.93
2019-03-30T16:17:08.275Z,14.40
2019-03-30T16:19:53.769Z,13.40
2019-03-30T16:22:47.303Z,14.10
2019-03-30T16:25:32.211Z,14.23
2019-03-30T16:28:17.463Z,15.87
2019-03-30T16:31:11.419Z,15.60
2019-03-30T16:33:55.991Z,13.50
2019-03-30T16:36:41.215Z,15.33
2019-03-30T16:39:35.192Z,15.27
2019-03-30T16:42:20.134Z,16.57
2019-03-30T16:45:14.092Z,15.87
2019-03-30T16:47:58.369Z,15.00
2019-03-30T16:50:43.235Z,13.00
2019-03-30T16:53:28.135Z,15.07
2019-03-30T16:56:11.807Z,14.57
2019-03-30T16:59:04.283Z,13.47
2019-03-30T17:01:48.523Z,15.43
2019-03-30T17:04:32.879Z,17.37
2019-03-30T17:07:26.567Z,17.23
2019-03-30T17:10:11.403Z,16.47
2019-03-30T17:12:56.223Z,20.00
2019-03-30T17:15:40.756Z,16.87
2019-03-30T17:18:25.334Z,15.10
2019-03-30T17:21:09.995Z,16.40
2019-03-30T17:23:54.755Z,14.03
2019-03-30T17:26:39.519Z,17.43
2019-03-30T17:29:24.628Z,15.50
2019-03-30T17:32:09.534Z,15.13
2019-03-30T17:34:54.764Z,17.37
2019-03-30T17:37:40.037Z,20.07
2019-03-30T17:40:35.408Z,15.20
2019-03-30T17:43:29.327Z,18.17
2019-03-30T17:46:14.346Z,20.10
2019-03-30T17:49:08.887Z,17.47
2019-03-30T17:52:02.108Z,20.23
2019-03-30T17:54:46.446Z,12.83
2019-03-30T17:57:31.315Z,13.97
2019-03-30T18:00:17.635Z,14.07
2019-03-30T18:03:02.921Z,13.43
2019-03-30T18:05:47.632Z,18.20
2019-03-30T18:08:33.184Z,12.83
2019-03-30T18:11:27.745Z,19.87
2019-03-30T18:14:12.962Z,22.10
2019-03-30T18:16:58.134Z,24.20
2019-03-30T18:19:42.728Z,18.37
2019-03-30T18:22:27.696Z,16.33
2019-03-30T18:25:12.610Z,12.23
2019-03-30T18:27:57.651Z,14.97
2019-03-30T18:30:51.251Z,13.10
2019-03-30T18:33:35.898Z,12.93
2019-03-30T18:36:20.710Z,14.17
2019-03-30T18:39:09.829Z,11.50
2019-03-30T18:41:52.702Z,15.57
2019-03-30T18:44:46.755Z,15.70
2019-03-30T18:47:41.395Z,23.63
2019-03-30T18:50:26.053Z,19.77
2019-03-30T18:53:19.403Z,17.80
2019-03-30T18:56:04.451Z,19.20
2019-03-30T18:58:49.078Z,20.00
2019-03-30T19:01:34.207Z,17.40
2019-03-30T19:04:27.896Z,16.63
2019-03-30T19:07:12.902Z,13.77
2019-03-30T19:09:56.399Z,13.60
2019-03-30T19:12:50.244Z,12.67
2019-03-30T19:15:34.939Z,10.33
2019-03-30T19:18:19.568Z,16.30
2019-03-30T19:21:04.344Z,15.93
2019-03-30T19:23:49.499Z,16.00
2019-03-30T19:26:34.281Z,16.63
2019-03-30T19:29:19.295Z,14.90
2019-03-30T19:32:13.033Z,15.67
2019-03-30T19:34:57.879Z,12.57
2019-03-30T19:37:43.330Z,14.23
2019-03-30T19:40:37.315Z,14.03
2019-03-30T19:43:51.678Z,14.87
2019-03-30T19:46:45.507Z,12.63
2019-03-30T19:49:30.511Z,15.33
2019-03-30T19:52:15.384Z,16.17
2019-03-30T19:55:00.511Z,16.93
2019-03-30T19:57:54.120Z,18.17
2019-03-30T20:00:39.229Z,18.63
2019-03-30T20:03:33.459Z,19.80
2019-03-30T20:06:27.295Z,43.27
2019-03-30T20:09:11.806Z,32.03
2019-03-30T20:11:57.039Z,29.57
2019-03-30T20:14:50.867Z,29.53
2019-03-30T20:17:35.628Z,21.03
2019-03-30T20:20:20.027Z,16.00
2019-03-30T20:23:04.983Z,13.87
2019-03-30T20:25:49.855Z,13.53
2019-03-30T20:28:34.595Z,12.63
2019-03-30T20:31:19.787Z,15.87
2019-03-30T20:34:03.982Z,13.83
2019-03-30T20:36:57.328Z,15.97
2019-03-30T20:39:42.267Z,15.90
2019-03-30T20:42:27.163Z,14.70
2019-03-30T20:45:12.499Z,18.53
2019-03-30T20:48:06.096Z,15.20
2019-03-30T20:50:50.890Z,12.77
2019-03-30T20:53:35.830Z,13.63
2019-03-30T20:56:29.652Z,15.53
2019-03-30T20:59:14.858Z,19.37
2019-03-30T21:02:08.795Z,13.90
2019-03-30T21:05:02.431Z,14.43
2019-03-30T21:07:47.387Z,19.27
2019-03-30T21:10:31.720Z,16.40
2019-03-30T21:13:16.527Z,16.77
2019-03-30T21:16:11.168Z,17.47
2019-03-30T21:18:55.619Z,22.43
2019-03-30T21:21:50.395Z,16.53
2019-03-30T21:24:34.658Z,17.60
2019-03-30T21:27:19.695Z,20.60
2019-03-30T21:30:04.652Z,20.17
2019-03-30T21:32:51.544Z,16.23
2019-03-30T21:35:45.279Z,22.53
2019-03-30T21:38:30.223Z,15.97
2019-03-30T21:41:23.995Z,18.43
2019-03-30T21:44:21.331Z,18.73
2019-03-30T21:46:55.443Z,14.67
2019-03-30T21:49:40.288Z,17.83
2019-03-30T21:52:25.138Z,15.40
2019-03-30T21:55:10.874Z,17.77
2019-03-30T21:57:55.429Z,16.27
2019-03-30T22:00:40.217Z,18.23
2019-03-30T22:03:26.631Z,21.60
2019-03-30T22:06:11.739Z,22.93
2019-03-30T22:08:57.011Z,17.77
2019-03-30T22:11:41.539Z,14.97
2019-03-30T22:14:27.023Z,16.67
2019-03-30T22:17:21.394Z,15.90
2019-03-30T22:20:14.554Z,16.93
2019-03-30T22:22:59.443Z,18.90
2019-03-30T22:25:44.791Z,16.70
2019-03-30T22:28:38.368Z,18.80
2019-03-30T22:31:23.083Z,13.97
2019-03-30T22:34:07.947Z,16.37
2019-03-30T22:36:52.660Z,21.40
2019-03-30T22:39:37.647Z,17.97
2019-03-30T22:42:22.347Z,16.73
2019-03-30T22:45:07.716Z,15.20
2019-03-30T22:48:03.328Z,16.47
2019-03-30T22:50:57.421Z,15.73
2019-03-30T22:53:51.116Z,15.93
2019-03-30T22:56:35.862Z,17.23
2019-03-30T22:59:20.806Z,14.57
2019-03-30T23:02:05.108Z,17.17
2019-03-30T23:04:50.252Z,16.80
2019-03-30T23:07:35.027Z,16.40
2019-03-30T23:10:20.047Z,16.93
2019-03-30T23:13:04.947Z,15.53
2019-03-30T23:15:49.302Z,16.27
2019-03-30T23:18:34.198Z,18.17
2019-03-30T23:21:19.318Z,17.73
2019-03-30T23:24:03.711Z,17.73
2019-03-30T23:26:48.675Z,16.67
2019-03-30T23:29:43.999Z,18.77
2019-03-30T23:32:37.743Z,16.87
2019-03-30T23:35:22.479Z,18.03
2019-03-30T23:38:07.002Z,17.50
2019-03-30T23:40:52.205Z,14.73
2019-03-30T23:43:36.905Z,12.90
2019-03-30T23:46:21.966Z,15.57
2019-03-30T23:49:06.327Z,17.37
2019-03-30T23:51:51.301Z,17.97
2019-03-30T23:54:35.763Z,16.50
2019-03-30T23:57:20.530Z,16.37
